createdAt,value
2023-01-22T00:04:07.590Z,23.75
2023-01-22T00:09:09.415Z,21.88
2023-01-22T00:14:11.460Z,23.45
2023-01-22T00:19:13.272Z,23.40
2023-01-22T00:24:15.039Z,25.30
2023-01-22T00:29:17.139Z,25.98
2023-01-22T00:34:18.837Z,25.63
2023-01-22T00:39:20.524Z,25.75
2023-01-22T00:44:22.308Z,25.00
2023-01-22T00:49:23.976Z,24.02
2023-01-22T00:54:25.635Z,23.05
2023-01-22T00:59:27.315Z,25.00
2023-01-22T01:04:28.949Z,25.13
2023-01-22T01:09:30.737Z,25.05
2023-01-22T01:14:32.491Z,25.45
2023-01-22T01:19:34.162Z,25.08
2023-01-22T01:24:36.536Z,26.10
2023-01-22T01:29:38.172Z,25.65
2023-01-22T01:34:39.837Z,25.38
2023-01-22T01:39:41.619Z,26.77
2023-01-22T01:44:43.338Z,27.88
2023-01-22T01:49:50.840Z,26.65
2023-01-22T01:54:56.336Z,26.58
2023-01-22T01:59:59.945Z,26.65
2023-01-22T02:05:02.413Z,25.98
2023-01-22T02:10:06.237Z,24.92
2023-01-22T02:15:09.224Z,23.33
2023-01-22T02:20:11.467Z,23.50
2023-01-22T02:25:13.134Z,25.02
2023-01-22T02:30:15.216Z,23.23
2023-01-22T02:35:17.273Z,23.88
2023-01-22T02:40:19.413Z,24.17
2023-01-22T02:45:21.397Z,23.77
2023-01-22T02:50:23.029Z,24.35
2023-01-22T02:55:25.113Z,23.70
2023-01-22T03:00:26.920Z,25.75
2023-01-22T03:05:31.045Z,24.73
2023-01-22T03:10:32.755Z,25.10
2023-01-22T03:15:53.041Z,23.60
2023-01-22T03:21:12.949Z,23.52
2023-01-22T03:26:15.444Z,23.35
2023-01-22T03:31:17.457Z,22.67
2023-01-22T03:36:19.305Z,23.08
2023-01-22T03:41:21.036Z,21.52
2023-01-22T03:46:22.758Z,21.63
2023-01-22T03:51:24.908Z,22.48
2023-01-22T03:56:27.774Z,24.10
2023-01-22T04:01:29.678Z,23.47
2023-01-22T04:06:31.410Z,20.92
2023-01-22T04:11:33.139Z,21.70
2023-01-22T04:16:35.735Z,21.80
2023-01-22T04:21:37.576Z,22.52
2023-01-22T04:26:39.324Z,22.75
2023-01-22T04:31:41.184Z,22.70
2023-01-22T04:36:42.989Z,20.38
2023-01-22T04:41:44.720Z,21.58
2023-01-22T04:46:46.461Z,22.58
2023-01-22T04:51:48.135Z,20.70
2023-01-22T04:56:49.816Z,19.83
2023-01-22T05:01:52.786Z,18.40
2023-01-22T05:06:54.574Z,18.73
2023-01-22T05:11:56.310Z,19.20
2023-01-22T05:16:58.131Z,19.77
2023-01-22T05:21:59.829Z,17.73
2023-01-22T05:27:01.674Z,18.52
2023-01-22T05:32:03.615Z,18.63
2023-01-22T05:37:06.258Z,18.02
2023-01-22T05:42:07.987Z,18.63
2023-01-22T05:47:09.985Z,17.35
2023-01-22T05:52:11.737Z,18.92
2023-01-22T05:57:13.455Z,17.20
2023-01-22T06:02:15.243Z,18.30
2023-01-22T06:07:16.962Z,18.23
2023-01-22T06:12:18.704Z,18.02
2023-01-22T06:17:21.505Z,19.60
2023-01-22T06:22:23.833Z,18.17
2023-01-22T06:27:25.673Z,18.05
2023-01-22T06:32:27.404Z,18.17
2023-01-22T06:37:30.094Z,18.15
2023-01-22T06:42:31.927Z,18.50
2023-01-22T06:47:33.655Z,19.35
2023-01-22T06:52:35.447Z,20.15
2023-01-22T06:57:37.305Z,20.35
2023-01-22T07:02:39.075Z,20.48
2023-01-22T07:07:41.324Z,19.88
2023-01-22T07:12:43.052Z,18.90
2023-01-22T07:17:50.911Z,19.70
2023-01-22T07:22:52.613Z,19.38
2023-01-22T07:28:04.323Z,20.23
2023-01-22T07:33:07.042Z,18.63
2023-01-22T07:38:09.910Z,19.20
2023-01-22T07:43:15.101Z,19.33
2023-01-22T07:48:16.896Z,18.25
2023-01-22T07:53:18.713Z,18.17
2023-01-22T07:58:21.573Z,17.20
2023-01-22T08:03:23.420Z,16.77
2023-01-22T08:08:25.203Z,18.10
2023-01-22T08:13:28.104Z,19.05
2023-01-22T08:18:29.859Z,18.40
2023-01-22T08:23:31.716Z,17.88
2023-01-22T08:28:33.481Z,16.55
2023-01-22T08:33:35.231Z,16.92
2023-01-22T08:38:37.013Z,16.20
2023-01-22T08:43:38.746Z,15.65
2023-01-22T08:48:43.220Z,15.63
2023-01-22T08:53:45.016Z,16.08
2023-01-22T08:58:51.341Z,17.67
2023-01-22T09:03:53.041Z,17.15
2023-01-22T09:08:55.320Z,17.63
2023-01-22T09:13:58.045Z,17.27
2023-01-22T09:18:59.814Z,17.50
2023-01-22T09:24:01.536Z,17.10
2023-01-22T09:29:05.913Z,16.40
2023-01-22T09:34:07.834Z,17.08
2023-01-22T09:39:09.882Z,16.40
2023-01-22T09:44:23.040Z,16.48
2023-01-22T09:49:29.485Z,16.60
2023-01-22T09:54:31.489Z,16.48
2023-01-22T09:59:39.204Z,16.40
2023-01-22T10:04:45.251Z,15.20
2023-01-22T10:10:18.379Z,15.80
2023-01-22T10:15:23.871Z,14.32
2023-01-22T10:20:26.543Z,14.30
2023-01-22T10:25:28.748Z,14.75
2023-01-22T10:30:31.036Z,15.05
2023-01-22T10:35:43.025Z,13.35
2023-01-22T10:40:44.717Z,12.60
2023-01-22T10:45:59.544Z,12.50
2023-01-22T10:51:21.101Z,12.23
2023-01-22T10:56:34.565Z,11.73
2023-01-22T11:01:39.480Z,12.23
2023-01-22T11:06:45.731Z,13.85
2023-01-22T11:11:54.973Z,13.23
2023-01-22T11:17:02.137Z,13.07
2023-01-22T11:22:14.729Z,12.07
2023-01-22T11:27:37.281Z,13.13
2023-01-22T11:33:03.929Z,12.10
2023-01-22T11:38:22.135Z,13.25
2023-01-22T11:43:38.896Z,12.95
2023-01-22T11:49:05.802Z,11.38
2023-01-22T11:54:35.205Z,12.57
2023-01-22T12:00:10.607Z,11.93
2023-01-22T12:05:24.467Z,11.80
2023-01-22T12:10:35.464Z,11.68
2023-01-22T12:15:48.228Z,11.93
2023-01-22T12:21:12.169Z,12.25
2023-01-22T12:26:23.987Z,11.85
2023-01-22T12:31:41.818Z,14.57
2023-01-22T12:36:44.961Z,12.73
2023-01-22T12:42:00.473Z,12.10
2023-01-22T12:47:17.280Z,11.27
2023-01-22T12:52:30.143Z,10.13
2023-01-22T12:57:40.931Z,11.23
2023-01-22T13:02:42.702Z,11.88
2023-01-22T13:07:45.159Z,10.85
2023-01-22T13:12:52.531Z,12.63
2023-01-22T13:18:07.117Z,16.15
2023-01-22T13:23:12.923Z,15.13
2023-01-22T13:28:18.789Z,14.65
2023-01-22T13:33:20.515Z,16.67
2023-01-22T13:38:26.028Z,16.38
2023-01-22T13:43:36.112Z,16.83
2023-01-22T13:48:38.362Z,17.92
2023-01-22T13:53:47.019Z,16.83
2023-01-22T13:58:50.391Z,16.55
2023-01-22T14:04:02.861Z,14.68
2023-01-22T14:09:04.957Z,12.55
2023-01-22T14:14:18.272Z,10.70
2023-01-22T14:19:20.091Z,6.73
2023-01-22T14:24:21.839Z,8.68
2023-01-22T14:29:23.780Z,8.32
2023-01-22T14:34:25.512Z,8.68
2023-01-22T14:39:27.444Z,8.43
2023-01-22T14:44:29.163Z,9.50
2023-01-22T14:49:30.918Z,9.18
2023-01-22T14:54:32.906Z,9.15
2023-01-22T14:59:34.659Z,9.38
2023-01-22T15:04:39.921Z,9.20
2023-01-22T15:09:41.684Z,9.15
2023-01-22T15:14:43.389Z,8.85
2023-01-22T15:19:45.073Z,8.75
2023-01-22T15:24:46.781Z,9.57
2023-01-22T15:29:48.572Z,8.90
2023-01-22T15:34:50.243Z,9.20
2023-01-22T15:39:52.264Z,9.57
2023-01-22T15:44:53.927Z,9.27
2023-01-22T15:49:55.578Z,9.70
2023-01-22T15:54:57.580Z,9.70
2023-01-22T15:59:59.257Z,10.63
2023-01-22T16:05:01.012Z,10.00
2023-01-22T16:10:02.917Z,10.38
2023-01-22T16:15:06.662Z,9.88
2023-01-22T16:20:09.857Z,10.88
2023-01-22T16:25:12.309Z,11.38
2023-01-22T16:30:14.302Z,11.15
2023-01-22T16:35:18.336Z,11.52
2023-01-22T16:40:20.390Z,11.07
2023-01-22T16:45:23.515Z,11.65
2023-01-22T16:50:25.179Z,12.30
2023-01-22T16:55:26.871Z,11.73
2023-01-22T17:00:28.568Z,12.43
2023-01-22T17:05:30.354Z,11.88
2023-01-22T17:10:32.136Z,11.82
2023-01-22T17:15:33.937Z,12.18
2023-01-22T17:20:37.199Z,12.27
2023-01-22T17:25:41.999Z,12.30
2023-01-22T17:30:43.756Z,12.60
2023-01-22T17:35:45.545Z,13.43
2023-01-22T17:40:47.278Z,14.00
2023-01-22T17:45:50.270Z,13.80
2023-01-22T17:50:52.071Z,14.07
2023-01-22T17:55:53.810Z,13.68
2023-01-22T18:01:02.083Z,14.10
2023-01-22T18:06:04.577Z,14.80
2023-01-22T18:11:12.585Z,14.27
2023-01-22T18:16:16.821Z,14.98
2023-01-22T18:21:19.539Z,14.93
2023-01-22T18:26:23.010Z,14.20
2023-01-22T18:31:27.113Z,16.20
2023-01-22T18:36:32.600Z,13.93
2023-01-22T18:41:34.462Z,16.08
2023-01-22T18:46:36.978Z,15.88
2023-01-22T18:51:40.252Z,16.13
2023-01-22T18:56:42.334Z,16.43
2023-01-22T19:01:50.432Z,15.75
2023-01-22T19:06:54.146Z,15.93
2023-01-22T19:11:55.975Z,16.20
2023-01-22T19:16:57.746Z,15.90
2023-01-22T19:21:59.470Z,16.40
2023-01-22T19:27:01.354Z,16.58
2023-01-22T19:32:03.158Z,15.45
2023-01-22T19:37:06.352Z,15.90
2023-01-22T19:42:08.052Z,16.07
2023-01-22T19:47:11.151Z,16.70
2023-01-22T19:52:13.413Z,16.43
2023-01-22T19:57:15.539Z,16.10
2023-01-22T20:02:20.764Z,17.08
2023-01-22T20:07:25.097Z,16.33
2023-01-22T20:12:26.965Z,17.60
2023-01-22T20:17:28.628Z,16.85
2023-01-22T20:22:30.495Z,16.85
2023-01-22T20:27:32.211Z,16.67
2023-01-22T20:32:33.963Z,15.65
2023-01-22T20:37:35.653Z,18.35
2023-01-22T20:42:37.981Z,16.70
2023-01-22T20:47:39.781Z,18.17
2023-01-22T20:52:41.473Z,17.63
2023-01-22T20:57:43.174Z,18.13
2023-01-22T21:02:45.014Z,18.38
2023-01-22T21:07:46.943Z,18.40
2023-01-22T21:12:48.570Z,17.58
2023-01-22T21:17:50.311Z,17.65
2023-01-22T21:22:52.010Z,18.08
2023-01-22T21:27:53.700Z,18.67
2023-01-22T21:32:56.137Z,18.33
2023-01-22T21:37:58.139Z,19.17
2023-01-22T21:43:18.298Z,19.00
2023-01-22T21:48:20.014Z,18.92
2023-01-22T21:53:21.740Z,17.98
2023-01-22T21:58:23.486Z,17.48
2023-01-22T22:03:25.255Z,19.83
2023-01-22T22:08:27.323Z,19.27
2023-01-22T22:13:29.617Z,18.92
2023-01-22T22:18:31.421Z,19.15
2023-01-22T22:23:35.168Z,18.15
2023-01-22T22:28:36.904Z,19.20
2023-01-22T22:33:40.143Z,20.23
2023-01-22T22:38:42.531Z,19.63
2023-01-22T22:43:46.046Z,17.88
2023-01-22T22:48:48.725Z,17.90
2023-01-22T22:53:55.957Z,18.98
2023-01-22T22:58:58.963Z,18.90
2023-01-22T23:04:01.168Z,17.17
2023-01-22T23:09:06.396Z,18.65
2023-01-22T23:14:09.897Z,18.75
2023-01-22T23:19:30.283Z,18.77
2023-01-22T23:24:31.979Z,18.52
2023-01-22T23:29:33.620Z,20.27
2023-01-22T23:34:35.348Z,19.83
2023-01-22T23:39:37.219Z,21.50
2023-01-22T23:44:39.026Z,19.98
2023-01-22T23:49:41.042Z,20.50
2023-01-22T23:54:42.731Z,20.85
2023-01-22T23:59:44.512Z,20.83
